createdAt,value
2022-10-26T00:00:35.551Z,96301.41
2022-10-26T00:03:03.317Z,96300.63
2022-10-26T00:05:33.848Z,96304.13
2022-10-26T00:08:01.784Z,96304.25
2022-10-26T00:10:31.566Z,96304.75
2022-10-26T00:12:59.658Z,96316.84
2022-10-26T00:15:27.398Z,96322.75
2022-10-26T00:17:56.518Z,96325.94
2022-10-26T00:20:24.282Z,96324.81
2022-10-26T00:22:51.961Z,96321.03
2022-10-26T00:25:19.711Z,96320.38
2022-10-26T00:27:47.490Z,96326.28
2022-10-26T00:30:15.759Z,96315.47
2022-10-26T00:32:43.445Z,96317.84
2022-10-26T00:35:22.914Z,96316.44
2022-10-26T00:37:57.030Z,96305.94
2022-10-26T00:40:29.449Z,96310.25
2022-10-26T00:42:57.426Z,96312.44
2022-10-26T00:45:27.135Z,96318.19
2022-10-26T00:47:59.681Z,96310.88
2022-10-26T00:50:33.051Z,96318.97
2022-10-26T00:53:03.299Z,96312.44
2022-10-26T00:55:42.371Z,96312.44
2022-10-26T00:58:11.668Z,96309.41
2022-10-26T01:00:41.822Z,96302.94
2022-10-26T01:03:11.127Z,96303.41
2022-10-26T01:05:44.366Z,96304.69
2022-10-26T01:08:12.298Z,96306.59
2022-10-26T01:10:42.763Z,96324.41
2022-10-26T01:13:12.040Z,96320.78
2022-10-26T01:15:49.240Z,96329.19
2022-10-26T01:18:24.161Z,96322.50
2022-10-26T01:21:24.323Z,96330.00
2022-10-26T01:24:08.104Z,96328.56
2022-10-26T01:26:54.495Z,96332.41
2022-10-26T01:29:52.169Z,96312.66
2022-10-26T01:32:28.003Z,96318.88
2022-10-26T01:35:06.037Z,96313.47
2022-10-26T01:37:40.115Z,96320.13
2022-10-26T01:40:12.795Z,96321.44
2022-10-26T01:42:45.656Z,96323.00
2022-10-26T01:45:15.961Z,96327.63
2022-10-26T01:47:47.282Z,96331.63
2022-10-26T01:50:16.210Z,96327.47
2022-10-26T01:52:43.915Z,96340.22
2022-10-26T01:55:45.606Z,96342.13
2022-10-26T01:58:30.284Z,96335.94
2022-10-26T02:01:05.455Z,96346.59
2022-10-26T02:03:44.362Z,96336.94
2022-10-26T02:06:20.332Z,96328.63
2022-10-26T02:09:02.399Z,96314.31
2022-10-26T02:11:38.632Z,96299.47
2022-10-26T02:16:53.480Z,96318.31
2022-10-26T02:19:32.931Z,96308.75
2022-10-26T02:22:07.009Z,96292.00
2022-10-26T02:24:37.455Z,96289.63
2022-10-26T02:27:08.540Z,96299.97
2022-10-26T02:29:37.828Z,96300.28
2022-10-26T02:32:08.185Z,96299.97
2022-10-26T02:34:39.208Z,96298.38
2022-10-26T02:37:08.957Z,96287.53
2022-10-26T02:39:40.059Z,96282.13
2022-10-26T02:42:10.468Z,96266.22
2022-10-26T02:44:44.278Z,96265.09
2022-10-26T02:47:12.769Z,96267.53
2022-10-26T02:49:42.204Z,96268.94
2022-10-26T02:52:17.276Z,96273.72
2022-10-26T02:54:53.927Z,96268.31
2022-10-26T02:57:26.054Z,96260.50
2022-10-26T02:59:55.087Z,96263.69
2022-10-26T03:02:23.875Z,96264.81
2022-10-26T03:04:53.778Z,96273.72
2022-10-26T03:07:22.730Z,96272.94
2022-10-26T03:09:50.795Z,96275.31
2022-10-26T03:12:18.613Z,96273.41
2022-10-26T03:14:46.361Z,96269.91
2022-10-26T03:17:14.099Z,96279.59
2022-10-26T03:19:41.812Z,96294.25
2022-10-26T03:22:10.844Z,96296.16
2022-10-26T03:24:38.567Z,96302.69
2022-10-26T03:27:06.287Z,96301.41
2022-10-26T03:29:33.964Z,96311.44
2022-10-26T03:32:01.687Z,96306.00
2022-10-26T03:34:29.399Z,96313.00
2022-10-26T03:36:57.167Z,96306.81
2022-10-26T03:39:26.308Z,96307.59
2022-10-26T03:41:55.361Z,96307.94
2022-10-26T03:44:23.249Z,96314.94
2022-10-26T03:46:50.939Z,96315.25
2022-10-26T03:49:18.641Z,96318.25
2022-10-26T03:51:46.356Z,96321.28
2022-10-26T03:54:14.102Z,96323.97
2022-10-26T03:56:43.149Z,96323.97
2022-10-26T03:59:10.802Z,96325.09
2022-10-26T04:01:38.935Z,96321.28
2022-10-26T04:04:06.834Z,96332.09
2022-10-26T04:06:34.648Z,96327.81
2022-10-26T04:09:03.965Z,96346.44
2022-10-26T04:11:31.644Z,96341.34
2022-10-26T04:14:00.890Z,96345.63
2022-10-26T04:16:31.169Z,96346.78
2022-10-26T04:19:01.283Z,96356.00
2022-10-26T04:21:29.039Z,96369.09
2022-10-26T04:23:56.703Z,96388.03
2022-10-26T04:26:24.385Z,96415.25
2022-10-26T04:28:52.146Z,96463.97
2022-10-26T04:31:21.369Z,96437.06
2022-10-26T04:33:49.082Z,96417.63
2022-10-26T04:36:16.786Z,96455.72
2022-10-26T04:38:44.504Z,96453.28
2022-10-26T04:41:12.226Z,96433.75
2022-10-26T04:43:40.032Z,96435.78
2022-10-26T04:46:07.701Z,96435.59
2022-10-26T04:48:36.798Z,96418.41
2022-10-26T04:51:04.568Z,96433.03
2022-10-26T04:53:33.427Z,96444.97
2022-10-26T04:56:02.375Z,96436.69
2022-10-26T04:58:30.351Z,96428.88
2022-10-26T05:00:58.142Z,96466.31
2022-10-26T05:03:25.902Z,96465.38
2022-10-26T05:05:55.005Z,96451.84
2022-10-26T05:08:22.717Z,96454.06
2022-10-26T05:10:50.835Z,96462.00
2022-10-26T05:13:18.581Z,96459.63
2022-10-26T05:15:46.309Z,96437.47
2022-10-26T05:18:14.005Z,96414.25
2022-10-26T05:20:41.707Z,96406.91
2022-10-26T05:23:13.829Z,96395.78
2022-10-26T05:25:41.546Z,96405.00
2022-10-26T05:28:13.276Z,96399.59
2022-10-26T05:30:41.689Z,96392.59
2022-10-26T05:33:11.569Z,96420.63
2022-10-26T05:35:39.472Z,96436.59
2022-10-26T05:38:14.022Z,96428.47
2022-10-26T05:40:48.032Z,96430.19
2022-10-26T05:43:15.787Z,96427.03
2022-10-26T05:45:43.551Z,96427.63
2022-10-26T05:48:11.669Z,96424.44
2022-10-26T05:50:39.968Z,96415.03
2022-10-26T05:53:07.991Z,96419.34
2022-10-26T05:55:38.152Z,96412.34
2022-10-26T05:58:10.466Z,96409.94
2022-10-26T06:00:48.817Z,96401.84
2022-10-26T06:03:26.329Z,96417.41
2022-10-26T06:05:56.472Z,96417.75
2022-10-26T06:08:26.495Z,96416.34
2022-10-26T06:10:59.301Z,96428.94
2022-10-26T06:13:27.789Z,96427.50
2022-10-26T06:16:12.502Z,96431.66
2022-10-26T06:18:49.751Z,96431.34
2022-10-26T06:21:30.992Z,96431.81
2022-10-26T06:24:08.274Z,96436.31
2022-10-26T06:26:43.356Z,96439.50
2022-10-26T06:29:23.513Z,96431.53
2022-10-26T06:31:51.437Z,96439.84
2022-10-26T06:34:26.464Z,96440.81
2022-10-26T06:36:55.954Z,96443.97
2022-10-26T06:39:26.964Z,96443.38
2022-10-26T06:41:57.559Z,96442.25
2022-10-26T06:44:26.912Z,96449.75
2022-10-26T06:47:04.008Z,96445.94
2022-10-26T06:49:36.070Z,96441.00
2022-10-26T06:52:11.185Z,96442.28
2022-10-26T06:54:48.676Z,96443.56
2022-10-26T06:57:20.131Z,96448.84
2022-10-26T06:59:51.600Z,96448.19
2022-10-26T07:02:19.517Z,96452.19
2022-10-26T07:04:47.492Z,96444.88
2022-10-26T07:07:18.498Z,96460.78
2022-10-26T07:09:46.218Z,96455.38
2022-10-26T07:12:13.935Z,96458.91
2022-10-26T07:14:43.027Z,96464.63
2022-10-26T07:17:11.164Z,96462.69
2022-10-26T07:19:40.380Z,96459.19
2022-10-26T07:22:08.111Z,96453.00
2022-10-26T07:24:36.058Z,96448.38
2022-10-26T07:27:03.764Z,96445.38
2022-10-26T07:29:31.465Z,96438.31
2022-10-26T07:32:00.552Z,96440.75
2022-10-26T07:34:28.262Z,96449.34
2022-10-26T07:36:55.955Z,96466.09
2022-10-26T07:39:23.950Z,96465.13
2022-10-26T07:41:51.638Z,96467.69
2022-10-26T07:44:19.372Z,96479.97
2022-10-26T07:46:47.090Z,96484.94
2022-10-26T07:49:19.207Z,96484.97
2022-10-26T07:51:47.373Z,96494.56
2022-10-26T07:54:15.083Z,96507.31
2022-10-26T07:56:42.812Z,96509.22
2022-10-26T07:59:12.526Z,96502.22
2022-10-26T08:01:40.304Z,96499.53
2022-10-26T08:04:08.061Z,96494.41
2022-10-26T08:06:37.385Z,96501.75
2022-10-26T08:09:05.267Z,96501.25
2022-10-26T08:11:33.067Z,96501.56
2022-10-26T08:14:00.784Z,96503.00
2022-10-26T08:16:28.518Z,96505.69
2022-10-26T08:18:56.375Z,96506.00
2022-10-26T08:21:36.315Z,96506.31
2022-10-26T08:24:09.931Z,96506.44
2022-10-26T08:26:37.692Z,96504.97
2022-10-26T08:29:05.687Z,96493.47
2022-10-26T08:31:33.428Z,96496.63
2022-10-26T08:34:01.784Z,96495.16
2022-10-26T08:36:29.888Z,96494.00
2022-10-26T08:38:57.589Z,96505.91
2022-10-26T08:41:36.460Z,96513.19
2022-10-26T08:44:14.542Z,96503.19
2022-10-26T08:46:46.059Z,96514.53
2022-10-26T08:49:21.975Z,96526.34
2022-10-26T08:51:51.584Z,96530.31
2022-10-26T08:54:23.876Z,96529.34
2022-10-26T08:56:56.480Z,96523.66
2022-10-26T08:59:31.954Z,96527.03
2022-10-26T09:02:01.814Z,96527.06
2022-10-26T09:04:34.003Z,96528.63
2022-10-26T09:07:09.235Z,96529.50
2022-10-26T09:09:47.897Z,96550.19
2022-10-26T09:12:26.986Z,96550.59
2022-10-26T09:15:05.976Z,96546.72
2022-10-26T09:17:43.869Z,96548.88
2022-10-26T09:20:26.769Z,96551.84
2022-10-26T09:23:00.820Z,96557.09
2022-10-26T09:25:37.123Z,96554.94
2022-10-26T09:28:08.392Z,96557.16
2022-10-26T09:30:37.752Z,96558.41
2022-10-26T09:33:15.225Z,96550.19
2022-10-26T09:35:46.819Z,96565.44
2022-10-26T09:38:20.499Z,96569.88
2022-10-26T09:40:56.886Z,96571.00
2022-10-26T09:43:31.443Z,96573.25
2022-10-26T09:45:59.180Z,96578.00
2022-10-26T09:48:34.475Z,96580.56
2022-10-26T09:51:04.661Z,96575.22
2022-10-26T09:53:33.090Z,96589.91
2022-10-26T09:56:05.525Z,96595.91
2022-10-26T09:58:38.872Z,96594.50
2022-10-26T10:01:06.754Z,96599.88
2022-10-26T10:03:34.633Z,96605.34
2022-10-26T10:06:24.024Z,96598.41
2022-10-26T10:09:10.375Z,96604.66
2022-10-26T10:11:40.140Z,96613.03
2022-10-26T10:14:13.957Z,96601.31
2022-10-26T10:16:42.328Z,96613.25
2022-10-26T10:19:23.860Z,96604.38
2022-10-26T10:21:53.652Z,96608.69
2022-10-26T10:24:25.048Z,96615.63
2022-10-26T10:27:01.912Z,96608.94
2022-10-26T10:29:33.048Z,96614.19
2022-10-26T10:32:02.168Z,96609.19
2022-10-26T10:34:32.064Z,96608.19
2022-10-26T10:37:01.502Z,96618.50
2022-10-26T10:39:39.930Z,96612.34
2022-10-26T10:42:17.510Z,96621.03
2022-10-26T10:44:48.476Z,96622.59
2022-10-26T10:47:22.389Z,96618.03
2022-10-26T10:49:57.139Z,96631.44
2022-10-26T10:52:28.223Z,96633.03
2022-10-26T10:55:09.223Z,96630.47
2022-10-26T10:57:44.259Z,96630.94
2022-10-26T11:00:14.208Z,96635.25
2022-10-26T11:03:00.640Z,96631.94
2022-10-26T11:05:48.007Z,96631.19
2022-10-26T11:08:21.662Z,96638.50
2022-10-26T11:10:54.935Z,96638.91
2022-10-26T11:13:27.423Z,96639.28
2022-10-26T11:16:02.762Z,96645.81
2022-10-26T11:18:34.855Z,96643.00
2022-10-26T11:21:12.805Z,96644.28
2022-10-26T11:23:47.364Z,96649.59
2022-10-26T11:26:18.928Z,96647.13
2022-10-26T11:28:50.772Z,96639.56
2022-10-26T11:31:25.081Z,96644.47
2022-10-26T11:34:06.641Z,96639.56
2022-10-26T11:36:37.358Z,96648.28
2022-10-26T11:39:14.914Z,96649.22
2022-10-26T11:41:50.810Z,96655.72
2022-10-26T11:44:23.183Z,96662.91
2022-10-26T11:46:57.364Z,96661.00
2022-10-26T11:49:30.693Z,96660.78
2022-10-26T11:52:07.758Z,96665.19
2022-10-26T11:54:40.172Z,96657.53
2022-10-26T11:57:08.243Z,96660.13
2022-10-26T11:59:41.447Z,96665.63
2022-10-26T12:02:16.245Z,96662.50
2022-10-26T12:04:48.719Z,96666.03
2022-10-26T12:07:23.411Z,96670.56
2022-10-26T12:09:52.123Z,96664.28
2022-10-26T12:12:26.262Z,96674.63
2022-10-26T12:15:04.267Z,96671.72
2022-10-26T12:17:40.092Z,96678.59
2022-10-26T12:20:22.040Z,96679.53
2022-10-26T12:22:49.982Z,96687.06
2022-10-26T12:25:22.718Z,96690.31
2022-10-26T12:27:55.340Z,96684.81
2022-10-26T12:30:29.464Z,96693.06
2022-10-26T12:33:00.299Z,96698.53
2022-10-26T12:35:46.595Z,96686.00
2022-10-26T12:38:58.005Z,96684.19
2022-10-26T12:41:27.507Z,96690.25
2022-10-26T12:44:35.227Z,96693.38
2022-10-26T12:47:02.947Z,96691.91
2022-10-26T12:50:00.564Z,96702.59
2022-10-26T12:52:52.947Z,96701.16
2022-10-26T12:56:11.407Z,96701.22
2022-10-26T12:59:12.898Z,96701.16
2022-10-26T13:01:57.685Z,96695.31
2022-10-26T13:04:47.250Z,96702.16
2022-10-26T13:07:20.746Z,96703.44
2022-10-26T13:09:57.677Z,96701.56
2022-10-26T13:12:26.925Z,96700.28
2022-10-26T13:15:02.574Z,96699.69
2022-10-26T13:17:32.438Z,96700.69
2022-10-26T13:20:02.289Z,96694.91
2022-10-26T13:22:30.706Z,96695.34
2022-10-26T13:25:02.538Z,96701.78
2022-10-26T13:27:58.823Z,96701.66
2022-10-26T13:30:46.661Z,96704.63
2022-10-26T13:33:37.384Z,96708.25
2022-10-26T13:36:16.838Z,96698.78
2022-10-26T13:38:47.920Z,96704.72
2022-10-26T13:41:28.288Z,96709.25
2022-10-26T13:43:56.335Z,96707.47
2022-10-26T13:46:28.280Z,96707.56
2022-10-26T13:49:02.444Z,96710.38
2022-10-26T13:51:41.643Z,96709.91
2022-10-26T13:54:20.499Z,96710.47
2022-10-26T13:57:02.520Z,96720.53
2022-10-26T13:59:32.839Z,96725.34
2022-10-26T14:02:07.871Z,96731.88
2022-10-26T14:04:35.615Z,96724.97
2022-10-26T14:07:03.368Z,96720.56
2022-10-26T14:09:31.956Z,96732.56
2022-10-26T14:12:02.372Z,96732.00
2022-10-26T14:14:33.127Z,96733.91
2022-10-26T14:17:01.199Z,96734.44
2022-10-26T14:19:31.060Z,96737.97
2022-10-26T14:21:59.759Z,96735.50
2022-10-26T14:24:45.579Z,96741.56
2022-10-26T14:27:18.256Z,96738.94
2022-10-26T14:29:58.370Z,96737.25
2022-10-26T14:32:35.610Z,96739.34
2022-10-26T14:35:03.607Z,96745.81
2022-10-26T14:37:39.943Z,96740.44
2022-10-26T14:40:14.683Z,96744.31
2022-10-26T14:42:46.864Z,96739.41
2022-10-26T14:45:29.805Z,96737.72
2022-10-26T14:48:06.735Z,96739.03
2022-10-26T14:50:36.450Z,96741.16
2022-10-26T14:53:13.049Z,96742.56
2022-10-26T14:55:47.412Z,96747.06
2022-10-26T14:58:24.116Z,96755.19
2022-10-26T15:01:36.046Z,96755.34
2022-10-26T15:04:06.238Z,96755.97
2022-10-26T15:06:43.295Z,96760.13
2022-10-26T15:09:32.863Z,96760.34
2022-10-26T15:12:02.841Z,96753.53
2022-10-26T15:14:32.365Z,96761.22
2022-10-26T15:17:01.131Z,96764.19
2022-10-26T15:19:29.382Z,96761.72
2022-10-26T15:21:57.658Z,96769.03
2022-10-26T15:24:38.473Z,96765.75
2022-10-26T15:27:14.424Z,96764.84
2022-10-26T15:29:45.456Z,96767.00
2022-10-26T15:32:29.699Z,96766.44
2022-10-26T15:35:24.034Z,96761.22
2022-10-26T15:37:52.977Z,96758.28
2022-10-26T15:40:21.203Z,96754.66
2022-10-26T15:42:52.162Z,96761.94
2022-10-26T15:45:23.141Z,96757.88
2022-10-26T15:47:52.849Z,96758.91
2022-10-26T15:50:22.394Z,96756.84
2022-10-26T15:52:50.929Z,96775.88
2022-10-26T15:55:18.819Z,96774.16
2022-10-26T15:57:46.891Z,96774.09
2022-10-26T16:00:17.883Z,96769.97
2022-10-26T16:02:47.403Z,96781.94
2022-10-26T16:05:17.025Z,96785.69
2022-10-26T16:07:47.864Z,96796.84
2022-10-26T16:10:21.338Z,96786.50
2022-10-26T16:12:50.183Z,96793.78
2022-10-26T16:15:20.205Z,96785.03
2022-10-26T16:17:49.726Z,96792.19
2022-10-26T16:20:20.171Z,96798.97
2022-10-26T16:22:49.233Z,96810.00
2022-10-26T16:25:19.311Z,96806.22
2022-10-26T16:27:49.331Z,96816.44
2022-10-26T16:30:18.022Z,96810.28
2022-10-26T16:32:45.922Z,96815.38
2022-10-26T16:35:15.414Z,96809.53
2022-10-26T16:37:43.375Z,96815.06
2022-10-26T16:40:11.935Z,96820.59
2022-10-26T16:42:43.688Z,96822.41
2022-10-26T16:45:12.461Z,96832.88
2022-10-26T16:47:40.463Z,96824.88
2022-10-26T16:50:09.691Z,96829.47
2022-10-26T16:52:39.534Z,96834.81
2022-10-26T16:55:09.073Z,96841.31
2022-10-26T16:57:37.659Z,96849.44
2022-10-26T17:00:06.773Z,96846.41
2022-10-26T17:02:34.687Z,96847.72
2022-10-26T17:05:05.971Z,96854.97
2022-10-26T17:07:35.623Z,96851.44
2022-10-26T17:10:05.539Z,96853.22
2022-10-26T17:12:33.534Z,96860.78
2022-10-26T17:15:01.510Z,96860.28
2022-10-26T17:17:29.245Z,96857.44
2022-10-26T17:19:57.312Z,96867.09
2022-10-26T17:22:24.984Z,96869.84
2022-10-26T17:24:52.763Z,96875.47
2022-10-26T17:27:23.002Z,96881.09
2022-10-26T17:29:50.743Z,96883.84
2022-10-26T17:32:18.620Z,96879.34
2022-10-26T17:34:46.346Z,96884.81
2022-10-26T17:37:14.055Z,96891.53
2022-10-26T17:39:41.795Z,96890.56
2022-10-26T17:42:09.546Z,96887.22
2022-10-26T17:44:39.246Z,96893.63
2022-10-26T17:47:07.132Z,96899.25
2022-10-26T17:49:36.152Z,96902.75
2022-10-26T17:52:05.925Z,96903.09
2022-10-26T17:54:33.794Z,96910.91
2022-10-26T17:57:01.958Z,96913.66
2022-10-26T17:59:29.896Z,96914.91
2022-10-26T18:01:59.094Z,96921.31
2022-10-26T18:04:26.896Z,96927.69
2022-10-26T18:06:54.596Z,96928.16
2022-10-26T18:09:22.445Z,96933.75
2022-10-26T18:11:53.420Z,96936.13
2022-10-26T18:14:23.572Z,96936.78
2022-10-26T18:16:51.586Z,96940.59
2022-10-26T18:19:20.983Z,96948.47
2022-10-26T18:21:48.669Z,96951.97
2022-10-26T18:24:16.399Z,96951.50
2022-10-26T18:26:44.104Z,96955.00
2022-10-26T18:29:13.454Z,96952.16
2022-10-26T18:31:41.248Z,96955.16
2022-10-26T18:34:08.959Z,96956.75
2022-10-26T18:39:10.760Z,96947.31
2022-10-26T18:41:38.532Z,96951.59
2022-10-26T18:44:06.240Z,96952.06
2022-10-26T18:46:40.155Z,96963.53
2022-10-26T18:49:08.072Z,96964.06
2022-10-26T18:51:35.889Z,96954.34
2022-10-26T18:54:05.087Z,96964.06
2022-10-26T18:56:32.766Z,96966.59
2022-10-26T18:59:01.384Z,96973.28
2022-10-26T19:01:31.211Z,96964.22
2022-10-26T19:04:00.410Z,96973.44
2022-10-26T19:06:30.074Z,96981.72
2022-10-26T19:08:58.100Z,96972.25
2022-10-26T19:11:29.679Z,96978.81
2022-10-26T19:13:57.779Z,96978.19
2022-10-26T19:16:44.716Z,96980.91
2022-10-26T19:19:14.071Z,96978.50
2022-10-26T19:21:41.869Z,96984.72
2022-10-26T19:24:13.909Z,96986.34
2022-10-26T19:26:44.066Z,96993.97
2022-10-26T19:29:15.222Z,96998.13
2022-10-26T19:31:43.997Z,96986.59
2022-10-26T19:34:13.031Z,96995.91
2022-10-26T19:36:45.118Z,96993.13
2022-10-26T19:39:14.207Z,96995.97
2022-10-26T19:41:43.456Z,97002.81
2022-10-26T19:44:13.018Z,97009.78
2022-10-26T19:46:40.847Z,97008.78
2022-10-26T19:49:08.920Z,97006.50
2022-10-26T19:51:36.775Z,97004.72
2022-10-26T19:54:06.693Z,97004.31
2022-10-26T19:56:35.394Z,97003.03
2022-10-26T19:59:04.776Z,97015.69
2022-10-26T20:01:32.683Z,97014.88
2022-10-26T20:04:02.220Z,97014.56
2022-10-26T20:06:30.669Z,97015.84
2022-10-26T20:08:58.456Z,97017.16
2022-10-26T20:11:26.291Z,97022.59
2022-10-26T20:13:55.360Z,97027.41
2022-10-26T20:16:24.704Z,97026.78
2022-10-26T20:18:52.389Z,97027.09
2022-10-26T20:21:21.525Z,97027.09
2022-10-26T20:23:49.231Z,97030.59
2022-10-26T20:26:19.238Z,97025.19
2022-10-26T20:28:48.975Z,97042.06
2022-10-26T20:31:16.987Z,97040.47
2022-10-26T20:33:46.082Z,97035.75
2022-10-26T20:36:13.841Z,97038.69
2022-10-26T20:38:42.101Z,97039.59
2022-10-26T20:41:12.776Z,97039.13
2022-10-26T20:43:41.482Z,97040.34
2022-10-26T20:46:11.417Z,97034.31
2022-10-26T20:48:39.654Z,97041.94
2022-10-26T20:51:17.191Z,97042.97
2022-10-26T20:53:51.861Z,97047.97
2022-10-26T20:56:24.831Z,97047.66
2022-10-26T20:58:54.983Z,97039.53
2022-10-26T21:01:26.029Z,97044.53
2022-10-26T21:03:54.323Z,97034.81
2022-10-26T21:06:24.247Z,97039.31
2022-10-26T21:08:52.730Z,97041.50
2022-10-26T21:11:21.631Z,97044.31
2022-10-26T21:13:50.256Z,97040.13
2022-10-26T21:16:18.632Z,97053.97
2022-10-26T21:18:46.508Z,97050.97
2022-10-26T21:21:14.213Z,97051.53
2022-10-26T21:23:43.439Z,97054.25
2022-10-26T21:26:11.199Z,97051.66
2022-10-26T21:28:41.439Z,97051.75
2022-10-26T21:31:11.205Z,97047.94
2022-10-26T21:33:39.351Z,97058.50
2022-10-26T21:36:11.994Z,97063.59
2022-10-26T21:38:41.018Z,97063.59
2022-10-26T21:41:11.970Z,97061.47
2022-10-26T21:43:41.321Z,97068.50
2022-10-26T21:46:09.747Z,97062.50
2022-10-26T21:48:37.474Z,97063.00
2022-10-26T21:51:07.154Z,97062.38
2022-10-26T21:53:35.058Z,97062.91
2022-10-26T21:56:03.025Z,97064.59
2022-10-26T21:58:32.299Z,97062.19
2022-10-26T22:01:07.481Z,97063.00
2022-10-26T22:03:36.343Z,97063.28
2022-10-26T22:06:05.093Z,97068.72
2022-10-26T22:08:33.722Z,97070.91
2022-10-26T22:11:06.815Z,97069.91
2022-10-26T22:13:36.880Z,97074.22
2022-10-26T22:16:06.453Z,97069.59
2022-10-26T22:18:35.720Z,97074.31
2022-10-26T22:21:04.506Z,97071.72
2022-10-26T22:23:34.363Z,97073.50
2022-10-26T22:26:04.030Z,97072.28
2022-10-26T22:28:33.027Z,97062.44
2022-10-26T22:31:03.534Z,97070.16
2022-10-26T22:33:31.570Z,97063.50
2022-10-26T22:36:04.867Z,97068.41
2022-10-26T22:38:32.664Z,97066.41
2022-10-26T22:41:00.535Z,97062.31
2022-10-26T22:43:28.267Z,97067.44
2022-10-26T22:46:05.103Z,97057.91
2022-10-26T22:48:33.218Z,97057.72
2022-10-26T22:51:06.219Z,97058.50
2022-10-26T22:53:33.956Z,97057.09
2022-10-26T22:56:02.060Z,97067.13
2022-10-26T22:58:29.986Z,97064.41
2022-10-26T23:01:05.017Z,97060.13
2022-10-26T23:03:33.015Z,97059.19
2022-10-26T23:06:00.730Z,97065.84
2022-10-26T23:08:28.808Z,97070.34
2022-10-26T23:11:00.080Z,97069.25
2022-10-26T23:13:28.356Z,97071.53
2022-10-26T23:15:56.460Z,97068.97
2022-10-26T23:18:25.562Z,97065.47
2022-10-26T23:20:53.361Z,97074.16
2022-10-26T23:23:21.047Z,97066.56
2022-10-26T23:25:48.736Z,97072.47
2022-10-26T23:28:16.465Z,97074.38
2022-10-26T23:30:45.934Z,97072.72
2022-10-26T23:33:13.696Z,97070.50
2022-10-26T23:35:43.247Z,97069.69
2022-10-26T23:38:10.935Z,97075.63
2022-10-26T23:40:38.808Z,97076.53
2022-10-26T23:43:06.452Z,97077.47
2022-10-26T23:45:34.142Z,97077.31
2022-10-26T23:48:01.807Z,97070.66
2022-10-26T23:50:29.511Z,97067.75
2022-10-26T23:52:58.528Z,97067.25
2022-10-26T23:55:26.242Z,97058.03
2022-10-26T23:57:53.951Z,97064.22
